createdAt,value
2023-08-09T00:02:37.989Z,24.80
2023-08-09T00:07:40.853Z,24.90
2023-08-09T00:12:46.490Z,24.80
2023-08-09T00:17:49.568Z,24.90
2023-08-09T00:22:52.530Z,24.80
2023-08-09T00:27:57.086Z,24.80
2023-08-09T00:32:59.959Z,24.80
2023-08-09T00:38:04.233Z,24.80
2023-08-09T00:43:12.110Z,24.80
2023-08-09T00:48:15.147Z,24.80
2023-08-09T00:53:18.276Z,24.80
2023-08-09T00:58:22.485Z,24.80
2023-08-09T01:03:25.630Z,24.90
2023-08-09T01:08:32.171Z,24.80
2023-08-09T01:13:38.188Z,24.80
2023-08-09T01:18:42.983Z,24.80
2023-08-09T01:23:48.487Z,24.70
2023-08-09T01:28:51.320Z,24.80
2023-08-09T01:33:54.208Z,24.80
2023-08-09T01:39:02.912Z,24.70
2023-08-09T01:44:06.554Z,24.80
2023-08-09T01:49:11.402Z,24.70
2023-08-09T01:54:18.389Z,24.80
2023-08-09T01:59:21.313Z,24.80
2023-08-09T02:04:25.531Z,24.70
2023-08-09T02:09:30.268Z,24.70
2023-08-09T02:14:33.170Z,24.70
2023-08-09T02:19:36.258Z,24.70
2023-08-09T02:24:40.446Z,24.80
2023-08-09T02:29:43.349Z,24.70
2023-08-09T02:34:46.190Z,24.80
2023-08-09T02:39:51.211Z,24.70
2023-08-09T02:44:54.065Z,24.70
2023-08-09T02:49:57.084Z,24.80
2023-08-09T02:55:01.286Z,24.70
2023-08-09T03:00:05.379Z,24.70
2023-08-09T03:05:09.607Z,24.70
2023-08-09T03:10:13.852Z,24.70
2023-08-09T03:15:17.198Z,24.70
2023-08-09T03:20:20.101Z,24.70
2023-08-09T03:25:24.643Z,24.70
2023-08-09T03:30:27.596Z,24.70
2023-08-09T03:35:30.522Z,24.70
2023-08-09T03:40:34.745Z,24.70
2023-08-09T03:45:38.011Z,24.70
2023-08-09T03:50:41.115Z,24.60
2023-08-09T03:55:45.359Z,24.70
2023-08-09T04:00:48.245Z,24.60
2023-08-09T04:05:51.303Z,24.60
2023-08-09T04:10:55.820Z,24.50
2023-08-09T04:15:58.785Z,24.60
2023-08-09T04:21:01.653Z,24.60
2023-08-09T04:26:05.870Z,24.50
2023-08-09T04:31:08.733Z,24.60
2023-08-09T04:36:11.758Z,24.60
2023-08-09T04:41:16.951Z,24.50
2023-08-09T04:46:20.210Z,24.60
2023-08-09T04:51:23.252Z,24.60
2023-08-09T04:56:27.495Z,24.50
2023-08-09T05:01:30.578Z,24.50
2023-08-09T05:06:33.466Z,24.50
2023-08-09T05:11:39.778Z,24.50
2023-08-09T05:16:42.671Z,24.50
2023-08-09T05:21:45.658Z,24.50
2023-08-09T05:26:49.918Z,24.50
2023-08-09T05:31:52.849Z,24.50
2023-08-09T05:36:55.771Z,24.50
2023-08-09T05:42:00.093Z,24.50
2023-08-09T05:47:03.384Z,24.40
2023-08-09T05:52:07.164Z,24.50
2023-08-09T05:57:11.407Z,24.50
2023-08-09T06:02:14.357Z,24.50
2023-08-09T06:07:17.414Z,24.40
2023-08-09T06:12:21.672Z,24.50
2023-08-09T06:17:24.584Z,24.40
2023-08-09T06:22:27.497Z,24.40
2023-08-09T06:27:32.217Z,24.40
2023-08-09T06:32:35.261Z,24.40
2023-08-09T06:37:38.187Z,24.50
2023-08-09T06:42:42.346Z,24.50
2023-08-09T06:47:45.331Z,24.40
2023-08-09T06:52:49.872Z,24.40
2023-08-09T06:57:54.043Z,24.40
2023-08-09T07:02:56.932Z,24.50
2023-08-09T07:08:01.966Z,24.40
2023-08-09T07:13:06.771Z,24.40
2023-08-09T07:18:10.514Z,24.40
2023-08-09T07:23:13.970Z,24.40
2023-08-09T07:28:19.302Z,24.50
2023-08-09T07:33:22.847Z,24.50
2023-08-09T07:38:25.768Z,24.50
2023-08-09T07:43:29.961Z,24.70
2023-08-09T07:48:32.988Z,24.70
2023-08-09T07:53:36.369Z,24.80
2023-08-09T07:58:40.704Z,24.80
2023-08-09T08:03:43.674Z,24.90
2023-08-09T08:08:47.554Z,25.00
2023-08-09T08:13:51.828Z,24.90
2023-08-09T08:18:54.734Z,24.90
2023-08-09T08:23:58.485Z,25.00
2023-08-09T08:29:03.623Z,24.90
2023-08-09T08:34:07.327Z,25.10
2023-08-09T08:39:16.550Z,25.20
2023-08-09T08:44:19.607Z,25.10
2023-08-09T08:49:26.346Z,25.20
2023-08-09T08:54:31.986Z,25.20
2023-08-09T08:59:35.379Z,25.40
2023-08-09T09:04:40.081Z,25.40
2023-08-09T09:09:58.983Z,25.40
2023-08-09T09:15:02.120Z,25.40
2023-08-09T09:20:07.580Z,25.50
2023-08-09T09:25:12.932Z,25.40
2023-08-09T09:30:15.924Z,25.50
2023-08-09T09:35:19.157Z,25.50
2023-08-09T09:40:27.252Z,25.50
2023-08-09T09:45:31.834Z,25.50
2023-08-09T09:50:35.373Z,25.60
2023-08-09T09:55:39.797Z,25.50
2023-08-09T10:00:45.923Z,25.50
2023-08-09T10:05:49.412Z,25.50
2023-08-09T10:10:55.951Z,25.50
2023-08-09T10:16:00.036Z,25.20
2023-08-09T10:21:03.665Z,24.70
2023-08-09T10:26:07.853Z,24.90
2023-08-09T10:31:10.986Z,24.90
2023-08-09T10:36:20.572Z,24.70
2023-08-09T10:41:27.647Z,24.90
2023-08-09T10:46:34.678Z,25.10
2023-08-09T10:51:48.114Z,25.20
2023-08-09T10:56:53.638Z,24.90
2023-08-09T11:01:58.320Z,24.90
2023-08-09T11:07:01.275Z,24.80
2023-08-09T11:12:08.360Z,25.20
2023-08-09T11:17:16.335Z,25.40
2023-08-09T11:22:19.457Z,25.50
2023-08-09T11:27:23.691Z,25.70
2023-08-09T11:32:28.265Z,25.70
2023-08-09T11:37:32.147Z,25.80
2023-08-09T11:42:36.410Z,25.70
2023-08-09T11:47:39.420Z,25.60
2023-08-09T11:52:42.277Z,25.70
2023-08-09T11:57:46.630Z,25.70
2023-08-09T12:02:50.886Z,25.80
2023-08-09T12:08:04.652Z,25.80
2023-08-09T12:13:10.820Z,25.80
2023-08-09T12:18:13.675Z,25.90
2023-08-09T12:23:17.158Z,26.00
2023-08-09T12:28:21.432Z,26.00
2023-08-09T12:33:27.109Z,26.10
2023-08-09T12:38:30.798Z,26.10
2023-08-09T12:43:35.029Z,26.10
2023-08-09T12:48:38.709Z,26.10
2023-08-09T12:53:41.805Z,26.10
2023-08-09T12:58:46.140Z,26.20
2023-08-09T13:03:49.446Z,26.20
2023-08-09T13:08:52.517Z,26.30
2023-08-09T13:13:57.261Z,26.30
2023-08-09T13:19:00.801Z,26.30
2023-08-09T13:24:06.762Z,26.20
2023-08-09T13:29:11.693Z,26.30
2023-08-09T13:34:14.823Z,26.40
2023-08-09T13:39:17.680Z,26.50
2023-08-09T13:44:22.092Z,26.60
2023-08-09T13:49:25.046Z,26.40
2023-08-09T13:54:28.802Z,26.30
2023-08-09T13:59:34.348Z,26.40
2023-08-09T14:04:37.200Z,26.50
2023-08-09T14:09:40.126Z,26.70
2023-08-09T14:14:44.335Z,26.90
2023-08-09T14:19:47.179Z,26.90
2023-08-09T14:24:50.781Z,26.80
2023-08-09T14:29:57.506Z,26.90
2023-08-09T14:35:00.622Z,27.00
2023-08-09T14:40:07.997Z,27.10
2023-08-09T14:45:12.969Z,27.20
2023-08-09T14:50:15.923Z,26.90
2023-08-09T14:55:18.877Z,26.90
2023-08-09T15:00:23.440Z,27.00
2023-08-09T15:05:26.455Z,26.90
2023-08-09T15:10:29.345Z,27.20
2023-08-09T15:15:33.593Z,27.10
2023-08-09T15:20:38.001Z,27.10
2023-08-09T15:25:40.972Z,27.30
2023-08-09T15:30:45.266Z,27.50
2023-08-09T15:35:48.238Z,27.70
2023-08-09T15:40:51.119Z,27.80
2023-08-09T15:45:55.402Z,27.90
2023-08-09T15:50:58.453Z,28.00
2023-08-09T15:56:02.213Z,28.20
2023-08-09T16:01:06.477Z,28.20
2023-08-09T16:06:12.276Z,28.20
2023-08-09T16:11:15.313Z,28.30
2023-08-09T16:16:34.041Z,28.40
2023-08-09T16:21:37.409Z,28.40
2023-08-09T16:26:40.356Z,28.40
2023-08-09T16:31:44.591Z,28.50
2023-08-09T16:36:47.540Z,28.60
2023-08-09T16:41:51.731Z,28.60
2023-08-09T16:46:59.716Z,28.60
2023-08-09T16:52:03.808Z,28.60
2023-08-09T16:57:07.388Z,28.70
2023-08-09T17:02:11.721Z,28.60
2023-08-09T17:07:14.800Z,28.70
2023-08-09T17:12:18.554Z,28.80
2023-08-09T17:17:23.591Z,28.80
2023-08-09T17:22:26.838Z,28.80
2023-08-09T17:27:30.065Z,28.80
2023-08-09T17:32:34.355Z,28.70
2023-08-09T17:37:37.464Z,28.80
2023-08-09T17:42:43.088Z,28.70
2023-08-09T17:47:47.616Z,28.60
2023-08-09T17:52:50.610Z,28.50
2023-08-09T17:57:53.769Z,28.40
2023-08-09T18:02:58.157Z,28.50
2023-08-09T18:08:01.026Z,28.40
2023-08-09T18:13:04.271Z,28.30
2023-08-09T18:18:09.589Z,28.20
2023-08-09T18:23:12.704Z,28.20
2023-08-09T18:28:15.586Z,28.10
2023-08-09T18:33:19.798Z,28.00
2023-08-09T18:38:22.912Z,27.90
2023-08-09T18:43:26.175Z,27.80
2023-08-09T18:48:31.057Z,27.70
2023-08-09T18:53:33.996Z,27.70
2023-08-09T18:58:37.539Z,27.60
2023-08-09T19:03:43.595Z,27.60
2023-08-09T19:08:46.577Z,27.50
2023-08-09T19:13:49.535Z,27.40
2023-08-09T19:18:54.681Z,27.40
2023-08-09T19:23:57.761Z,27.30
2023-08-09T19:29:00.694Z,27.30
2023-08-09T19:34:05.113Z,27.30
2023-08-09T19:39:08.092Z,27.20
2023-08-09T19:44:11.009Z,27.20
2023-08-09T19:49:15.502Z,27.20
2023-08-09T19:54:18.410Z,27.10
2023-08-09T19:59:21.307Z,27.10
2023-08-09T20:04:25.512Z,27.10
2023-08-09T20:09:28.476Z,26.90
2023-08-09T20:14:31.344Z,26.90
2023-08-09T20:19:35.520Z,26.90
2023-08-09T20:24:42.722Z,26.90
2023-08-09T20:29:45.591Z,26.90
2023-08-09T20:34:49.804Z,26.90
2023-08-09T20:39:52.852Z,26.80
2023-08-09T20:44:55.727Z,26.70
2023-08-09T20:50:00.781Z,26.80
2023-08-09T20:55:04.405Z,26.70
2023-08-09T21:00:13.448Z,26.70
2023-08-09T21:05:17.698Z,26.60
2023-08-09T21:10:21.005Z,26.70
2023-08-09T21:15:24.130Z,26.70
2023-08-09T21:20:28.500Z,26.60
2023-08-09T21:30:41.954Z,26.60
2023-08-09T21:35:46.190Z,26.60
2023-08-09T21:40:57.996Z,26.60
2023-08-09T21:46:00.966Z,26.60
2023-08-09T21:51:05.208Z,26.60
2023-08-09T21:56:08.051Z,26.60
2023-08-09T22:01:10.962Z,26.50
2023-08-09T22:06:15.405Z,26.50
2023-08-09T22:11:18.667Z,26.50
2023-08-09T22:16:25.229Z,26.50
2023-08-09T22:26:32.894Z,26.40
2023-08-09T22:31:35.802Z,26.50
2023-08-09T22:36:40.048Z,26.40
2023-08-09T22:41:42.879Z,26.40
2023-08-09T22:46:45.816Z,26.40
2023-08-09T22:51:50.086Z,26.40
2023-08-09T22:56:52.999Z,26.40
2023-08-09T23:01:56.814Z,26.40
2023-08-09T23:07:01.026Z,26.40
2023-08-09T23:12:04.680Z,26.40
2023-08-09T23:17:08.177Z,26.40
2023-08-09T23:22:12.352Z,26.30
2023-08-09T23:27:15.262Z,26.30
2023-08-09T23:32:18.182Z,26.30
2023-08-09T23:37:22.464Z,26.30
2023-08-09T23:42:26.691Z,26.30
2023-08-09T23:47:29.597Z,26.30
2023-08-09T23:52:34.108Z,26.20
2023-08-09T23:57:36.986Z,26.30
